Pertusola — IBER — position and weather

sailwx.info

Track history (hours):
 
Tides and Currents Weather Stations Pressure Air Temp Water Temp Dewpoint Dewpoint Depression Visibility Wind Speed Wind Dir Waves Ship Positions

Pertusola

Last reported at 2016-Jun-01 01:34 UTC. Time now 2016-Jun-01 01:46 UTC.
Position N 36°37' E 014°41'.

Length 145 m; draft 7 m.

Type: Ship (hazmat cat A). MMSI: 247399000.

Date/timePositionNaut miles runAvg speedWind from/ knotsBaromVisibWave heightAir tempDewpointWater temp
2016-Jun-01 01:34N 36°37' E 014°41'1514.6
2016-Jun-01 00:34N 36°44' E 014°25'1514.8
2016-May-31 23:34N 36°50' E 014°08'1514.9
2016-May-31 22:34N 36°57' E 013°51'1514.4
2016-May-31 21:32N 37°04' E 013°35'1414.3
2016-May-31 20:32N 37°10' E 013°19'1414.1
2016-May-31 19:33N 37°16' E 013°03'1414.1
2016-May-31 18:33N 37°22' E 012°48'1514.3
2016-May-31 17:30N 37°29' E 012°31'1415.0
2016-May-31 16:33N 37°38' E 012°17'1514.6
2016-May-31 15:33N 37°48' E 012°03'1714.6
2016-May-31 14:23N 37°55' E 011°44'2714.8
2016-May-31 12:32N 38°06' E 011°12'1514.4
2016-May-31 11:32N 38°09' E 010°54'1414.4
2016-May-31 10:33N 38°07' E 010°36'1413.9
2016-May-31 09:33N 38°05' E 010°18'1414.4
2016-May-31 08:33N 38°03' E 010°00'1414.5
2016-May-31 07:33N 38°01' E 009°42'1514.8
2016-May-31 06:33N 37°59' E 009°24'2914.3
2016-May-31 04:33N 37°55' E 008°47'1714.4
2016-May-31 03:24N 37°53' E 008°27'20414.5
2016-May-30 13:19N 37°22' E 004°12'46014.9
2016-May-29 06:33N 36°01' W 005°12'1111.2
2016-May-29 05:33N 36°09' W 005°22'0 0.2
2016-May-29 04:33N 36°08' W 005°22'0 0.0
2016-May-29 03:30N 36°08' W 005°22'0 0.0
2016-May-29 02:33N 36°08' W 005°22'0 0.0
2016-May-29 01:27N 36°08' W 005°22'0 0.0
2016-May-29 00:33N 36°08' W 005°22'0 0.0
2016-May-28 23:33N 36°08' W 005°22'0 0.1
2016-May-28 22:30N 36°09' W 005°22'2 2.1
2016-May-28 21:33N 36°07' W 005°22'1111.2
2016-May-28 20:33N 35°57' W 005°29'25012.9
2016-May-28 01:10N 37°57' W 010°03'2613.7
2016-May-27 23:16N 38°23' W 010°07'1513.9
2016-May-27 22:10N 38°38' W 010°12'1013.7
2016-May-27 21:28N 38°47' W 010°13'50011.6
2016-May-26 02:23N 45°13' W 003°05'1113.7
2016-May-26 01:33N 45°16' W 002°49'1413.8
2016-May-26 00:33N 45°20' W 002°31'1413.9
2016-May-25 23:33N 45°25' W 002°12'1414.5
2016-May-25 22:33N 45°29' W 001°52'1514.7
2016-May-25 21:32N 45°33' W 001°32'1313.5
2016-May-25 20:33N 45°39' W 001°15'49 2.7
2016-May-25 02:08N 44°60' W 000°33'0 0.0
2016-May-25 00:14N 44°60' W 000°33'  
Track history (hours):
 
Tides and Currents Weather Stations Pressure Air Temp Water Temp Dewpoint Dewpoint Depression Visibility Wind Speed Wind Dir Waves Ship Positions

Pertusola

Last reported at 2016-Jun-01 01:34 UTC. Time now 2016-Jun-01 01:46 UTC.
Position N 36°37' E 014°41'.

Length 145 m; draft 7 m.

Type: Ship (hazmat cat A). MMSI: 247399000.

Date/timePositionNaut miles runAvg speedWind from/ knotsBaromVisibWave heightAir tempDewpointWater temp
2016-Jun-01 01:34N 36°37' E 014°41'1514.6
2016-Jun-01 00:34N 36°44' E 014°25'1514.8
2016-May-31 23:34N 36°50' E 014°08'1514.9
2016-May-31 22:34N 36°57' E 013°51'1514.4
2016-May-31 21:32N 37°04' E 013°35'1414.3
2016-May-31 20:32N 37°10' E 013°19'1414.1
2016-May-31 19:33N 37°16' E 013°03'1414.1
2016-May-31 18:33N 37°22' E 012°48'1514.3
2016-May-31 17:30N 37°29' E 012°31'1415.0
2016-May-31 16:33N 37°38' E 012°17'1514.6
2016-May-31 15:33N 37°48' E 012°03'1714.6
2016-May-31 14:23N 37°55' E 011°44'2714.8
2016-May-31 12:32N 38°06' E 011°12'1514.4
2016-May-31 11:32N 38°09' E 010°54'1414.4
2016-May-31 10:33N 38°07' E 010°36'1413.9
2016-May-31 09:33N 38°05' E 010°18'1414.4
2016-May-31 08:33N 38°03' E 010°00'1414.5
2016-May-31 07:33N 38°01' E 009°42'1514.8
2016-May-31 06:33N 37°59' E 009°24'2914.3
2016-May-31 04:33N 37°55' E 008°47'1714.4
2016-May-31 03:24N 37°53' E 008°27'20414.5
2016-May-30 13:19N 37°22' E 004°12'46014.9
2016-May-29 06:33N 36°01' W 005°12'1111.2
2016-May-29 05:33N 36°09' W 005°22'0 0.2
2016-May-29 04:33N 36°08' W 005°22'0 0.0
2016-May-29 03:30N 36°08' W 005°22'0 0.0
2016-May-29 02:33N 36°08' W 005°22'0 0.0
2016-May-29 01:27N 36°08' W 005°22'0 0.0
2016-May-29 00:33N 36°08' W 005°22'0 0.0
2016-May-28 23:33N 36°08' W 005°22'0 0.1
2016-May-28 22:30N 36°09' W 005°22'2 2.1
2016-May-28 21:33N 36°07' W 005°22'1111.2
2016-May-28 20:33N 35°57' W 005°29'25012.9
2016-May-28 01:10N 37°57' W 010°03'2613.7
2016-May-27 23:16N 38°23' W 010°07'1513.9
2016-May-27 22:10N 38°38' W 010°12'1013.7
2016-May-27 21:28N 38°47' W 010°13'50011.6
2016-May-26 02:23N 45°13' W 003°05'1113.7
2016-May-26 01:33N 45°16' W 002°49'1413.8
2016-May-26 00:33N 45°20' W 002°31'1413.9
2016-May-25 23:33N 45°25' W 002°12'1414.5
2016-May-25 22:33N 45°29' W 001°52'1514.7
2016-May-25 21:32N 45°33' W 001°32'1313.5
2016-May-25 20:33N 45°39' W 001°15'49 2.7
2016-May-25 02:08N 44°60' W 000°33'0 0.0
2016-May-25 00:14N 44°60' W 000°33'  

Dump ship's entire track history